createdAt,value
2023-04-16T00:00:01.070Z,1020.45
2023-04-16T00:10:00.861Z,1020.49
2023-04-16T00:20:01.298Z,1020.60
2023-04-16T00:30:02.383Z,1020.51
2023-04-16T00:40:01.273Z,1020.57
2023-04-16T00:50:01.088Z,1020.55
2023-04-16T01:00:00.949Z,1020.57
2023-04-16T01:10:00.812Z,1020.68
2023-04-16T01:20:02.994Z,1020.76
2023-04-16T01:40:03.820Z,1020.82
2023-04-16T01:50:00.867Z,1020.79
2023-04-16T02:00:04.788Z,1020.88
2023-04-16T02:10:00.268Z,1020.98
2023-04-16T02:20:01.265Z,1020.98
2023-04-16T02:30:01.023Z,1021.07
2023-04-16T02:40:02.191Z,1021.03
2023-04-16T02:50:01.285Z,1021.11
2023-04-16T03:00:01.510Z,1021.17
2023-04-16T03:10:00.982Z,1021.20
2023-04-16T03:20:00.997Z,1021.31
2023-04-16T03:30:01.280Z,1021.40
2023-04-16T03:40:00.867Z,1021.40
2023-04-16T03:50:00.859Z,1021.41
2023-04-16T04:00:01.300Z,1021.61
2023-04-16T04:10:01.512Z,1021.68
2023-04-16T04:20:01.848Z,1021.83
2023-04-16T04:30:00.836Z,1021.87
2023-04-16T04:40:01.551Z,1021.86
2023-04-16T04:50:00.873Z,1021.95
2023-04-16T05:00:00.820Z,1022.09
2023-04-16T05:10:01.336Z,1022.23
2023-04-16T05:20:00.989Z,1022.28
2023-04-16T05:30:00.833Z,1022.38
2023-04-16T05:40:01.272Z,1022.46
2023-04-16T05:50:01.419Z,1022.45
2023-04-16T06:00:01.289Z,1022.59
2023-04-16T06:10:01.338Z,1022.71
2023-04-16T06:20:02.500Z,1022.83
2023-04-16T06:30:03.408Z,1022.79
2023-04-16T06:40:00.845Z,1022.83
2023-04-16T06:50:01.064Z,1022.94
2023-04-16T07:00:01.411Z,1023.00
2023-04-16T07:10:01.121Z,1023.00
2023-04-16T07:20:03.756Z,1023.11
2023-04-16T07:30:01.098Z,1023.19
2023-04-16T07:40:01.576Z,1023.28
2023-04-16T07:50:00.874Z,1023.38
2023-04-16T08:00:01.111Z,1023.47
2023-04-16T08:10:03.072Z,1023.55
2023-04-16T08:20:01.505Z,1023.63
2023-04-16T08:30:00.873Z,1023.82
2023-04-16T08:40:01.080Z,1023.89
2023-04-16T08:50:01.095Z,1023.97
2023-04-16T09:00:00.864Z,1024.08
2023-04-16T09:10:00.879Z,1024.14
2023-04-16T09:20:00.832Z,1024.25
2023-04-16T09:30:01.401Z,1024.31
2023-04-16T09:40:01.222Z,1024.30
2023-04-16T09:50:01.394Z,1024.38
2023-04-16T10:00:00.944Z,1024.40
2023-04-16T10:10:01.073Z,1024.40
2023-04-16T10:20:00.814Z,1024.48
2023-04-16T10:30:01.057Z,1024.55
2023-04-16T10:40:03.188Z,1024.52
2023-04-16T10:50:00.916Z,1024.69
2023-04-16T11:00:02.187Z,1024.66
2023-04-16T11:10:01.174Z,1024.68
2023-04-16T11:20:01.301Z,1024.75
2023-04-16T11:30:01.129Z,1024.70
2023-04-16T11:40:00.959Z,1024.75
2023-04-16T11:50:01.753Z,1024.72
2023-04-16T12:00:03.649Z,1024.80
2023-04-16T12:10:02.064Z,1024.87
2023-04-16T12:20:01.273Z,1024.95
2023-04-16T12:30:01.127Z,1025.13
2023-04-16T12:40:01.293Z,1025.13
2023-04-16T12:50:02.919Z,1025.16
2023-04-16T13:00:01.317Z,1025.14
2023-04-16T13:10:00.989Z,1025.23
2023-04-16T13:20:01.556Z,1025.41
2023-04-16T13:30:00.932Z,1025.47
2023-04-16T13:40:01.275Z,1025.44
2023-04-16T13:50:00.256Z,1025.43
2023-04-16T14:00:00.939Z,1025.34
2023-04-16T14:10:01.116Z,1025.28
2023-04-16T14:20:00.823Z,1025.29
2023-04-16T14:30:00.249Z,1025.31
2023-04-16T14:40:00.857Z,1025.35
2023-04-16T14:50:01.125Z,1025.40
2023-04-16T15:00:02.173Z,1025.39
2023-04-16T15:10:00.847Z,1025.48
2023-04-16T15:20:01.216Z,1025.70
2023-04-16T15:30:02.012Z,1025.78
2023-04-16T15:40:02.107Z,1025.82
2023-04-16T15:50:01.038Z,1025.84
2023-04-16T16:00:07.165Z,1025.89
2023-04-16T16:10:01.029Z,1025.93
2023-04-16T16:20:02.371Z,1025.97
2023-04-16T16:30:01.505Z,1026.02
2023-04-16T16:40:01.022Z,1026.12
2023-04-16T16:50:03.069Z,1026.15
2023-04-16T17:00:01.403Z,1026.25
2023-04-16T17:10:03.120Z,1026.34
2023-04-16T17:20:01.115Z,1026.43
2023-04-16T17:30:01.324Z,1026.52
2023-04-16T17:40:01.215Z,1026.60
2023-04-16T17:50:00.242Z,1026.77
2023-04-16T18:00:01.222Z,1026.84
2023-04-16T18:10:01.332Z,1027.00
2023-04-16T18:20:01.098Z,1027.09
2023-04-16T18:30:01.514Z,1027.20
2023-04-16T18:40:01.556Z,1027.35
2023-04-16T18:50:00.899Z,1027.54
2023-04-16T19:00:01.113Z,1027.56
2023-04-16T19:10:00.864Z,1027.56
2023-04-16T19:20:00.826Z,1027.59
2023-04-16T19:30:01.174Z,1027.70
2023-04-16T19:40:02.025Z,1027.68
2023-04-16T19:50:02.054Z,1027.79
2023-04-16T20:00:01.335Z,1027.77
2023-04-16T20:10:01.134Z,1027.78
2023-04-16T20:20:01.568Z,1027.83
2023-04-16T20:30:01.069Z,1027.83
2023-04-16T20:40:01.305Z,1027.96
2023-04-16T21:00:01.370Z,1028.05
2023-04-16T21:10:00.829Z,1028.11
2023-04-16T21:20:01.363Z,1028.12
2023-04-16T21:30:01.028Z,1028.10
2023-04-16T21:40:01.108Z,1028.20
2023-04-16T21:50:00.915Z,1028.15
2023-04-16T22:00:01.388Z,1028.16
2023-04-16T22:10:00.875Z,1028.21
2023-04-16T22:20:01.065Z,1028.30
2023-04-16T22:30:01.048Z,1028.28
2023-04-16T22:40:00.785Z,1028.32
2023-04-16T22:50:04.407Z,1028.33
2023-04-16T23:00:04.857Z,1028.33
2023-04-16T23:10:00.896Z,1028.32
2023-04-16T23:20:01.239Z,1028.34
2023-04-16T23:30:00.886Z,1028.33
2023-04-16T23:40:00.844Z,1028.27
2023-04-16T23:50:00.898Z,1028.24
